หน้าหลัก
METAR-TAF:

METAR-TAF

ท่าอากาศยาน :

Masvingo, ซิมบับเว

ละติจูด: 20-04S, ลองจิจูด: 030-52E, ความสูง: 1094 ม.

การสังเกตสภาพอากาศปัจจุบัน

รายงานได้ทำขึ้นเมื่อ 46 นาทีที่แล้ว ณ เวลา 09:00 UTC
ลม 11 นอตจากตะวันออกเฉียงใต้
อุณหภูมิ 24°C
ความชื้น 22%
ความกดอากาศ 1025 hPa
ทัศนวิสัย 10 กม. หรือมากกว่า
ไม่มีเมฆต่ำกว่า 1,500 ม. และไม่มีเมฆคิวมูโลนิมบัส

METAR: FVMV 180900Z 14011KT CAVOK 24/01 Q1025

เวลา: 11:46 (09:46 UTC)


TAF: หายไป

สังเกตการณ์สภาพอากาศและพยากรณ์อากาศของสนามบินมากกว่า 4000 แห่ง (รายงาน METAR และ TAF).

สถานีที่ดูได้จะแสดงไว้ด้วยจุดสีเหลืองและสีแดงบนแผนที่.

เลื่อนเมาส์ไปเหนือจุดเพื่อดูชื่อสถานี.

แล้วคลิกเพื่อดูสังเกตการณ์และการพยากรณ์สภาพอากาศ.

ในการเปลี่ยนแผนที่: คลิกที่ปุ่มสีเขียวที่มีกากบาทสีดำเพื่อซูมเข้า; ที่ปุ่มสีเขียวที่มีขีดเพื่อซูมออก; หรือที่ลูกศรสีเขียวเพื่อไปยังแผนที่ที่อยู่ติดกัน.


METAR-TAF: